sensor_id;sensor_type;location;lat;lon;timestamp;temperature;humidity
11221;DHT22;8517;53.546;10.104;2022-12-18T00:02:04;-2.10;99.90
11221;DHT22;8517;53.546;10.104;2022-12-18T00:04:31;-2.10;99.90
11221;DHT22;8517;53.546;10.104;2022-12-18T00:06:58;-2.10;99.90
11221;DHT22;8517;53.546;10.104;2022-12-18T00:09:25;-2.20;99.90
11221;DHT22;8517;53.546;10.104;2022-12-18T00:11:52;-2.20;99.90
11221;DHT22;8517;53.546;10.104;2022-12-18T00:14:18;-2.20;99.90
11221;DHT22;8517;53.546;10.104;2022-12-18T00:16:46;-2.20;99.90
11221;DHT22;8517;53.546;10.104;2022-12-18T00:19:14;-2.30;99.90
11221;DHT22;8517;53.546;10.104;2022-12-18T00:21:42;-2.20;99.90
11221;DHT22;8517;53.546;10.104;2022-12-18T00:24:09;-2.20;99.90
11221;DHT22;8517;53.546;10.104;2022-12-18T00:26:37;-2.30;99.90
11221;DHT22;8517;53.546;10.104;2022-12-18T00:29:06;-2.30;99.90
11221;DHT22;8517;53.546;10.104;2022-12-18T00:31:33;-2.40;99.90
11221;DHT22;8517;53.546;10.104;2022-12-18T00:34:01;-2.40;99.90
11221;DHT22;8517;53.546;10.104;2022-12-18T00:36:31;-2.40;99.90
11221;DHT22;8517;53.546;10.104;2022-12-18T00:39:00;-2.40;99.90
11221;DHT22;8517;53.546;10.104;2022-12-18T00:41:28;-2.50;99.90
11221;DHT22;8517;53.546;10.104;2022-12-18T00:44:14;-2.50;99.90
11221;DHT22;8517;53.546;10.104;2022-12-18T00:46:42;-2.50;99.90
11221;DHT22;8517;53.546;10.104;2022-12-18T00:49:12;-2.50;99.90
11221;DHT22;8517;53.546;10.104;2022-12-18T00:51:40;-2.50;99.90
11221;DHT22;8517;53.546;10.104;2022-12-18T00:54:07;-2.50;99.90
11221;DHT22;8517;53.546;10.104;2022-12-18T00:56:35;-2.50;99.90
11221;DHT22;8517;53.546;10.104;2022-12-18T00:59:02;-2.50;99.90
11221;DHT22;8517;53.546;10.104;2022-12-18T01:01:30;-2.60;99.90
11221;DHT22;8517;53.546;10.104;2022-12-18T01:03:58;-2.50;99.90
11221;DHT22;8517;53.546;10.104;2022-12-18T01:06:25;-2.60;99.90
11221;DHT22;8517;53.546;10.104;2022-12-18T01:08:54;-2.50;99.90
11221;DHT22;8517;53.546;10.104;2022-12-18T01:11:21;-2.50;99.90
11221;DHT22;8517;53.546;10.104;2022-12-18T01:13:48;-2.50;99.90
11221;DHT22;8517;53.546;10.104;2022-12-18T01:16:17;-2.50;99.90
11221;DHT22;8517;53.546;10.104;2022-12-18T01:18:44;-2.50;99.90
11221;DHT22;8517;53.546;10.104;2022-12-18T01:21:13;-2.60;99.90
11221;DHT22;8517;53.546;10.104;2022-12-18T01:23:41;-2.60;99.90
11221;DHT22;8517;53.546;10.104;2022-12-18T01:26:13;-2.60;99.90
11221;DHT22;8517;53.546;10.104;2022-12-18T01:28:40;-2.60;99.90
11221;DHT22;8517;53.546;10.104;2022-12-18T01:31:16;-2.70;99.90
11221;DHT22;8517;53.546;10.104;2022-12-18T01:33:43;-2.70;99.90
11221;DHT22;8517;53.546;10.104;2022-12-18T01:36:18;-2.70;99.90
11221;DHT22;8517;53.546;10.104;2022-12-18T01:38:45;-2.70;99.90
11221;DHT22;8517;53.546;10.104;2022-12-18T01:41:16;-2.70;99.90
11221;DHT22;8517;53.546;10.104;2022-12-18T01:43:45;-2.80;99.90
11221;DHT22;8517;53.546;10.104;2022-12-18T01:46:12;-2.70;99.90
11221;DHT22;8517;53.546;10.104;2022-12-18T01:48:40;-2.70;99.90
11221;DHT22;8517;53.546;10.104;2022-12-18T01:51:09;-2.70;99.90
11221;DHT22;8517;53.546;10.104;2022-12-18T01:53:37;-2.60;99.90
11221;DHT22;8517;53.546;10.104;2022-12-18T01:56:05;-2.60;99.90
11221;DHT22;8517;53.546;10.104;2022-12-18T01:58:39;-2.60;99.90
11221;DHT22;8517;53.546;10.104;2022-12-18T02:01:08;-2.60;99.90
11221;DHT22;8517;53.546;10.104;2022-12-18T02:03:34;-2.60;99.90
11221;DHT22;8517;53.546;10.104;2022-12-18T02:06:09;-2.70;99.90
11221;DHT22;8517;53.546;10.104;2022-12-18T02:08:43;-2.70;99.90
11221;DHT22;8517;53.546;10.104;2022-12-18T02:11:18;-2.70;99.90
11221;DHT22;8517;53.546;10.104;2022-12-18T02:13:54;-2.70;99.90
11221;DHT22;8517;53.546;10.104;2022-12-18T02:16:27;-2.80;99.90
11221;DHT22;8517;53.546;10.104;2022-12-18T02:18:58;-2.80;99.90
11221;DHT22;8517;53.546;10.104;2022-12-18T02:21:33;-2.80;99.90
11221;DHT22;8517;53.546;10.104;2022-12-18T02:24:15;-2.80;99.90
11221;DHT22;8517;53.546;10.104;2022-12-18T02:26:48;-2.80;99.90
11221;DHT22;8517;53.546;10.104;2022-12-18T02:29:19;-2.80;99.90
11221;DHT22;8517;53.546;10.104;2022-12-18T02:31:51;-2.80;99.90
11221;DHT22;8517;53.546;10.104;2022-12-18T02:34:20;-2.80;99.90
11221;DHT22;8517;53.546;10.104;2022-12-18T02:36:50;-2.80;99.90
11221;DHT22;8517;53.546;10.104;2022-12-18T02:39:18;-2.80;99.90
11221;DHT22;8517;53.546;10.104;2022-12-18T02:41:48;-2.90;99.90
11221;DHT22;8517;53.546;10.104;2022-12-18T02:44:15;-2.80;99.90
11221;DHT22;8517;53.546;10.104;2022-12-18T02:46:43;-2.90;99.90
11221;DHT22;8517;53.546;10.104;2022-12-18T02:49:23;-2.90;99.90
11221;DHT22;8517;53.546;10.104;2022-12-18T02:51:54;-2.90;99.90
11221;DHT22;8517;53.546;10.104;2022-12-18T02:54:33;-2.90;99.90
11221;DHT22;8517;53.546;10.104;2022-12-18T02:57:10;-2.90;99.90
11221;DHT22;8517;53.546;10.104;2022-12-18T02:59:43;-2.90;99.90
11221;DHT22;8517;53.546;10.104;2022-12-18T03:02:19;-2.90;99.90
11221;DHT22;8517;53.546;10.104;2022-12-18T03:04:52;-2.90;99.90
11221;DHT22;8517;53.546;10.104;2022-12-18T03:07:28;-2.90;99.90
11221;DHT22;8517;53.546;10.104;2022-12-18T03:10:00;-3.00;99.90
11221;DHT22;8517;53.546;10.104;2022-12-18T03:12:32;-3.00;99.90
11221;DHT22;8517;53.546;10.104;2022-12-18T03:15:04;-3.00;99.90
11221;DHT22;8517;53.546;10.104;2022-12-18T03:17:34;-3.00;99.90
11221;DHT22;8517;53.546;10.104;2022-12-18T03:20:07;-3.00;99.90
11221;DHT22;8517;53.546;10.104;2022-12-18T03:22:36;-3.00;99.90
11221;DHT22;8517;53.546;10.104;2022-12-18T03:25:07;-3.00;99.90
11221;DHT22;8517;53.546;10.104;2022-12-18T03:27:40;-3.00;99.90
11221;DHT22;8517;53.546;10.104;2022-12-18T03:30:12;-3.00;99.90
11221;DHT22;8517;53.546;10.104;2022-12-18T03:32:42;-3.10;99.90
11221;DHT22;8517;53.546;10.104;2022-12-18T03:35:13;-3.10;99.90
11221;DHT22;8517;53.546;10.104;2022-12-18T03:37:44;-3.10;99.90
11221;DHT22;8517;53.546;10.104;2022-12-18T03:40:11;-3.10;99.90
11221;DHT22;8517;53.546;10.104;2022-12-18T03:42:46;-3.10;99.90
11221;DHT22;8517;53.546;10.104;2022-12-18T03:45:20;-3.20;99.90
11221;DHT22;8517;53.546;10.104;2022-12-18T03:47:56;-3.20;99.90
11221;DHT22;8517;53.546;10.104;2022-12-18T03:50:29;-3.10;99.90
11221;DHT22;8517;53.546;10.104;2022-12-18T03:53:00;-3.20;99.90
11221;DHT22;8517;53.546;10.104;2022-12-18T03:55:32;-3.20;99.90
11221;DHT22;8517;53.546;10.104;2022-12-18T03:58:02;-3.20;99.90
11221;DHT22;8517;53.546;10.104;2022-12-18T04:00:31;-3.20;99.90
11221;DHT22;8517;53.546;10.104;2022-12-18T04:03:00;-3.20;99.90
11221;DHT22;8517;53.546;10.104;2022-12-18T04:05:28;-3.20;99.90
11221;DHT22;8517;53.546;10.104;2022-12-18T04:07:56;-3.30;99.90
11221;DHT22;8517;53.546;10.104;2022-12-18T04:10:23;-3.30;99.90
11221;DHT22;8517;53.546;10.104;2022-12-18T04:12:50;-3.30;99.90
11221;DHT22;8517;53.546;10.104;2022-12-18T04:15:18;-3.30;99.90
11221;DHT22;8517;53.546;10.104;2022-12-18T04:17:48;-3.40;99.90
11221;DHT22;8517;53.546;10.104;2022-12-18T04:20:15;-3.40;99.90
11221;DHT22;8517;53.546;10.104;2022-12-18T04:22:43;-3.40;99.90
11221;DHT22;8517;53.546;10.104;2022-12-18T04:25:09;-3.40;99.90
11221;DHT22;8517;53.546;10.104;2022-12-18T04:27:39;-3.40;99.90
11221;DHT22;8517;53.546;10.104;2022-12-18T04:30:07;-3.40;99.90
11221;DHT22;8517;53.546;10.104;2022-12-18T04:32:35;-3.40;99.90
11221;DHT22;8517;53.546;10.104;2022-12-18T04:35:02;-3.40;99.90
11221;DHT22;8517;53.546;10.104;2022-12-18T04:37:32;-3.50;99.90
11221;DHT22;8517;53.546;10.104;2022-12-18T04:39:59;-3.50;99.90
11221;DHT22;8517;53.546;10.104;2022-12-18T04:42:26;-3.50;99.90
11221;DHT22;8517;53.546;10.104;2022-12-18T04:44:52;-3.50;99.90
11221;DHT22;8517;53.546;10.104;2022-12-18T04:47:19;-3.50;99.90
11221;DHT22;8517;53.546;10.104;2022-12-18T04:49:47;-3.50;99.90
11221;DHT22;8517;53.546;10.104;2022-12-18T04:52:14;-3.50;99.90
11221;DHT22;8517;53.546;10.104;2022-12-18T04:54:41;-3.60;99.90
11221;DHT22;8517;53.546;10.104;2022-12-18T04:57:08;-3.60;99.90
11221;DHT22;8517;53.546;10.104;2022-12-18T04:59:34;-3.60;99.90
11221;DHT22;8517;53.546;10.104;2022-12-18T05:02:01;-3.60;99.90
11221;DHT22;8517;53.546;10.104;2022-12-18T05:04:28;-3.60;99.90
11221;DHT22;8517;53.546;10.104;2022-12-18T05:06:56;-3.60;99.90
11221;DHT22;8517;53.546;10.104;2022-12-18T05:09:23;-3.60;99.90
11221;DHT22;8517;53.546;10.104;2022-12-18T05:11:49;-3.60;99.90
11221;DHT22;8517;53.546;10.104;2022-12-18T05:14:16;-3.60;99.90
11221;DHT22;8517;53.546;10.104;2022-12-18T05:16:43;-3.60;99.90
11221;DHT22;8517;53.546;10.104;2022-12-18T05:19:10;-3.60;99.90
11221;DHT22;8517;53.546;10.104;2022-12-18T05:21:36;-3.60;99.90
11221;DHT22;8517;53.546;10.104;2022-12-18T05:24:05;-3.60;99.90
11221;DHT22;8517;53.546;10.104;2022-12-18T05:26:32;-3.60;99.90
11221;DHT22;8517;53.546;10.104;2022-12-18T05:28:59;-3.60;99.90
11221;DHT22;8517;53.546;10.104;2022-12-18T05:31:25;-3.60;99.90
11221;DHT22;8517;53.546;10.104;2022-12-18T05:33:52;-3.70;99.90
11221;DHT22;8517;53.546;10.104;2022-12-18T05:36:19;-3.70;99.90
11221;DHT22;8517;53.546;10.104;2022-12-18T05:38:46;-3.70;99.90
11221;DHT22;8517;53.546;10.104;2022-12-18T05:41:14;-3.70;99.90
11221;DHT22;8517;53.546;10.104;2022-12-18T05:43:42;-3.70;99.90
11221;DHT22;8517;53.546;10.104;2022-12-18T05:46:12;-3.70;99.90
11221;DHT22;8517;53.546;10.104;2022-12-18T05:48:39;-3.70;99.90
11221;DHT22;8517;53.546;10.104;2022-12-18T05:51:07;-3.70;99.90
11221;DHT22;8517;53.546;10.104;2022-12-18T05:53:35;-3.70;99.90
11221;DHT22;8517;53.546;10.104;2022-12-18T05:56:03;-3.70;99.90
11221;DHT22;8517;53.546;10.104;2022-12-18T05:58:32;-3.70;99.90
11221;DHT22;8517;53.546;10.104;2022-12-18T06:01:07;-3.70;99.90
11221;DHT22;8517;53.546;10.104;2022-12-18T06:03:34;-3.70;99.90
11221;DHT22;8517;53.546;10.104;2022-12-18T06:06:01;-3.70;99.90
11221;DHT22;8517;53.546;10.104;2022-12-18T06:08:28;-3.70;99.90
11221;DHT22;8517;53.546;10.104;2022-12-18T06:10:55;-3.70;99.90
11221;DHT22;8517;53.546;10.104;2022-12-18T06:13:22;-3.80;99.90
11221;DHT22;8517;53.546;10.104;2022-12-18T06:15:50;-3.80;99.90
11221;DHT22;8517;53.546;10.104;2022-12-18T06:18:17;-3.70;99.90
11221;DHT22;8517;53.546;10.104;2022-12-18T06:20:43;-3.80;99.90
11221;DHT22;8517;53.546;10.104;2022-12-18T06:23:10;-3.80;99.90
11221;DHT22;8517;53.546;10.104;2022-12-18T06:25:38;-3.80;99.90
11221;DHT22;8517;53.546;10.104;2022-12-18T06:28:05;-3.80;99.90
11221;DHT22;8517;53.546;10.104;2022-12-18T06:30:32;-3.80;99.90
11221;DHT22;8517;53.546;10.104;2022-12-18T06:33:00;-3.90;99.90
11221;DHT22;8517;53.546;10.104;2022-12-18T06:35:27;-3.90;99.90
11221;DHT22;8517;53.546;10.104;2022-12-18T06:37:54;-3.90;99.90
11221;DHT22;8517;53.546;10.104;2022-12-18T06:40:20;-3.90;99.90
11221;DHT22;8517;53.546;10.104;2022-12-18T06:42:47;-3.90;99.90
11221;DHT22;8517;53.546;10.104;2022-12-18T06:45:15;-3.90;99.90
11221;DHT22;8517;53.546;10.104;2022-12-18T06:47:42;-3.90;99.90
11221;DHT22;8517;53.546;10.104;2022-12-18T06:50:11;-3.90;99.90
11221;DHT22;8517;53.546;10.104;2022-12-18T06:52:38;-3.90;99.90
11221;DHT22;8517;53.546;10.104;2022-12-18T06:55:10;-3.90;99.90
11221;DHT22;8517;53.546;10.104;2022-12-18T06:57:37;-3.90;99.90
11221;DHT22;8517;53.546;10.104;2022-12-18T07:00:06;-3.90;99.90
11221;DHT22;8517;53.546;10.104;2022-12-18T07:02:33;-3.90;99.90
11221;DHT22;8517;53.546;10.104;2022-12-18T07:05:00;-4.00;99.90
11221;DHT22;8517;53.546;10.104;2022-12-18T07:07:29;-4.00;99.90
11221;DHT22;8517;53.546;10.104;2022-12-18T07:09:55;-4.00;99.90
11221;DHT22;8517;53.546;10.104;2022-12-18T07:12:22;-4.00;99.90
11221;DHT22;8517;53.546;10.104;2022-12-18T07:14:49;-4.00;99.90
11221;DHT22;8517;53.546;10.104;2022-12-18T07:17:16;-4.00;99.90
11221;DHT22;8517;53.546;10.104;2022-12-18T07:19:42;-4.00;99.90
11221;DHT22;8517;53.546;10.104;2022-12-18T07:22:09;-4.10;99.90
11221;DHT22;8517;53.546;10.104;2022-12-18T07:24:37;-4.10;99.90
11221;DHT22;8517;53.546;10.104;2022-12-18T07:27:04;-4.10;99.90
11221;DHT22;8517;53.546;10.104;2022-12-18T07:29:31;-4.10;99.90
11221;DHT22;8517;53.546;10.104;2022-12-18T07:31:58;-4.10;99.90
11221;DHT22;8517;53.546;10.104;2022-12-18T07:34:24;-4.10;99.90
11221;DHT22;8517;53.546;10.104;2022-12-18T07:36:51;-4.20;99.90
11221;DHT22;8517;53.546;10.104;2022-12-18T07:39:18;-4.20;99.90
11221;DHT22;8517;53.546;10.104;2022-12-18T07:41:46;-4.20;99.90
11221;DHT22;8517;53.546;10.104;2022-12-18T07:44:33;-4.20;99.90
11221;DHT22;8517;53.546;10.104;2022-12-18T07:47:00;-4.20;99.90
11221;DHT22;8517;53.546;10.104;2022-12-18T07:49:27;-4.20;99.90
11221;DHT22;8517;53.546;10.104;2022-12-18T07:51:54;-4.20;99.90
11221;DHT22;8517;53.546;10.104;2022-12-18T07:54:21;-4.20;99.90
11221;DHT22;8517;53.546;10.104;2022-12-18T07:56:50;-4.20;99.90
11221;DHT22;8517;53.546;10.104;2022-12-18T07:59:17;-4.20;99.90
11221;DHT22;8517;53.546;10.104;2022-12-18T08:01:44;-4.20;99.90
11221;DHT22;8517;53.546;10.104;2022-12-18T08:04:10;-4.10;99.90
11221;DHT22;8517;53.546;10.104;2022-12-18T08:06:38;-4.10;99.90
11221;DHT22;8517;53.546;10.104;2022-12-18T08:09:06;-4.10;99.90
11221;DHT22;8517;53.546;10.104;2022-12-18T08:11:34;-4.10;99.90
11221;DHT22;8517;53.546;10.104;2022-12-18T08:14:02;-4.10;99.90
11221;DHT22;8517;53.546;10.104;2022-12-18T08:16:29;-4.10;99.90
11221;DHT22;8517;53.546;10.104;2022-12-18T08:18:56;-4.10;99.90
11221;DHT22;8517;53.546;10.104;2022-12-18T08:21:24;-4.00;99.90
11221;DHT22;8517;53.546;10.104;2022-12-18T08:23:53;-4.00;99.90
11221;DHT22;8517;53.546;10.104;2022-12-18T08:26:21;-4.00;99.90
11221;DHT22;8517;53.546;10.104;2022-12-18T08:28:48;-4.00;99.90
11221;DHT22;8517;53.546;10.104;2022-12-18T08:31:16;-3.90;99.90
11221;DHT22;8517;53.546;10.104;2022-12-18T08:33:43;-3.90;99.90
11221;DHT22;8517;53.546;10.104;2022-12-18T08:36:10;-3.90;99.90
11221;DHT22;8517;53.546;10.104;2022-12-18T08:38:37;-3.80;99.90
11221;DHT22;8517;53.546;10.104;2022-12-18T08:41:05;-3.80;99.90
11221;DHT22;8517;53.546;10.104;2022-12-18T08:43:32;-3.80;99.90
11221;DHT22;8517;53.546;10.104;2022-12-18T08:46:18;-3.70;99.90
11221;DHT22;8517;53.546;10.104;2022-12-18T08:48:45;-3.70;99.90
11221;DHT22;8517;53.546;10.104;2022-12-18T08:51:12;-3.70;99.90
11221;DHT22;8517;53.546;10.104;2022-12-18T08:53:39;-3.60;99.90
11221;DHT22;8517;53.546;10.104;2022-12-18T08:56:07;-3.60;99.90
11221;DHT22;8517;53.546;10.104;2022-12-18T08:58:34;-3.60;99.90
11221;DHT22;8517;53.546;10.104;2022-12-18T09:01:01;-3.60;99.90
11221;DHT22;8517;53.546;10.104;2022-12-18T09:03:29;-3.50;99.90
11221;DHT22;8517;53.546;10.104;2022-12-18T09:05:56;-3.50;99.90
11221;DHT22;8517;53.546;10.104;2022-12-18T09:08:23;-3.40;99.90
11221;DHT22;8517;53.546;10.104;2022-12-18T09:10:51;-3.30;99.90
11221;DHT22;8517;53.546;10.104;2022-12-18T09:13:18;-3.30;99.90
11221;DHT22;8517;53.546;10.104;2022-12-18T09:15:47;-3.30;99.90
11221;DHT22;8517;53.546;10.104;2022-12-18T09:18:15;-3.10;99.90
11221;DHT22;8517;53.546;10.104;2022-12-18T09:20:44;-3.00;99.90
11221;DHT22;8517;53.546;10.104;2022-12-18T09:23:39;-2.90;99.90
11221;DHT22;8517;53.546;10.104;2022-12-18T09:26:06;-2.70;99.90
11221;DHT22;8517;53.546;10.104;2022-12-18T09:28:33;-2.50;99.90
11221;DHT22;8517;53.546;10.104;2022-12-18T09:31:04;-2.30;99.90
11221;DHT22;8517;53.546;10.104;2022-12-18T09:33:33;-2.00;99.90
11221;DHT22;8517;53.546;10.104;2022-12-18T09:36:05;-1.80;99.90
11221;DHT22;8517;53.546;10.104;2022-12-18T09:38:32;-1.60;99.90
11221;DHT22;8517;53.546;10.104;2022-12-18T09:41:02;-1.50;99.90
11221;DHT22;8517;53.546;10.104;2022-12-18T09:43:36;-1.40;99.90
11221;DHT22;8517;53.546;10.104;2022-12-18T09:46:09;-1.30;99.90
11221;DHT22;8517;53.546;10.104;2022-12-18T09:48:40;-1.10;99.90
11221;DHT22;8517;53.546;10.104;2022-12-18T09:51:12;-0.80;99.90
11221;DHT22;8517;53.546;10.104;2022-12-18T09:53:41;-0.40;99.90
11221;DHT22;8517;53.546;10.104;2022-12-18T09:56:17;-0.20;99.90
11221;DHT22;8517;53.546;10.104;2022-12-18T09:58:51;0.10;99.90
11221;DHT22;8517;53.546;10.104;2022-12-18T10:01:22;0.40;99.90
11221;DHT22;8517;53.546;10.104;2022-12-18T10:03:49;0.60;99.90
11221;DHT22;8517;53.546;10.104;2022-12-18T10:06:21;0.70;99.90
11221;DHT22;8517;53.546;10.104;2022-12-18T10:08:54;0.80;99.90
11221;DHT22;8517;53.546;10.104;2022-12-18T10:11:32;1.00;99.90
11221;DHT22;8517;53.546;10.104;2022-12-18T10:14:06;1.10;99.90
11221;DHT22;8517;53.546;10.104;2022-12-18T10:16:40;1.20;99.90
11221;DHT22;8517;53.546;10.104;2022-12-18T10:19:26;1.20;99.90
11221;DHT22;8517;53.546;10.104;2022-12-18T10:22:03;1.20;99.90
11221;DHT22;8517;53.546;10.104;2022-12-18T10:24:41;1.20;99.90
11221;DHT22;8517;53.546;10.104;2022-12-18T10:27:14;1.10;99.90
11221;DHT22;8517;53.546;10.104;2022-12-18T10:29:42;1.00;99.90
11221;DHT22;8517;53.546;10.104;2022-12-18T10:32:14;0.90;99.90
11221;DHT22;8517;53.546;10.104;2022-12-18T10:34:41;0.80;99.90
11221;DHT22;8517;53.546;10.104;2022-12-18T10:37:15;0.60;99.90
11221;DHT22;8517;53.546;10.104;2022-12-18T10:39:43;0.50;99.90
11221;DHT22;8517;53.546;10.104;2022-12-18T10:42:14;0.40;99.90
11221;DHT22;8517;53.546;10.104;2022-12-18T10:44:42;0.30;99.90
11221;DHT22;8517;53.546;10.104;2022-12-18T10:47:14;0.20;99.90
11221;DHT22;8517;53.546;10.104;2022-12-18T10:49:47;0.10;99.90
11221;DHT22;8517;53.546;10.104;2022-12-18T10:52:18;0.10;99.90
11221;DHT22;8517;53.546;10.104;2022-12-18T10:54:53;0.00;99.90
11221;DHT22;8517;53.546;10.104;2022-12-18T10:57:39;0.00;99.90
11221;DHT22;8517;53.546;10.104;2022-12-18T11:00:25;0.00;99.90
11221;DHT22;8517;53.546;10.104;2022-12-18T11:02:53;0.20;99.90
11221;DHT22;8517;53.546;10.104;2022-12-18T11:05:28;0.40;99.90
11221;DHT22;8517;53.546;10.104;2022-12-18T11:07:58;0.60;99.90
11221;DHT22;8517;53.546;10.104;2022-12-18T11:10:29;0.70;99.90
11221;DHT22;8517;53.546;10.104;2022-12-18T11:13:11;0.70;99.90
11221;DHT22;8517;53.546;10.104;2022-12-18T11:15:40;0.70;99.90
11221;DHT22;8517;53.546;10.104;2022-12-18T11:18:16;0.70;99.90
11221;DHT22;8517;53.546;10.104;2022-12-18T11:20:50;0.70;99.90
11221;DHT22;8517;53.546;10.104;2022-12-18T11:23:21;0.90;99.90
11221;DHT22;8517;53.546;10.104;2022-12-18T11:25:59;1.00;99.90
11221;DHT22;8517;53.546;10.104;2022-12-18T11:28:34;1.10;99.90
11221;DHT22;8517;53.546;10.104;2022-12-18T11:31:28;1.10;99.90
11221;DHT22;8517;53.546;10.104;2022-12-18T11:34:01;1.10;99.90
11221;DHT22;8517;53.546;10.104;2022-12-18T11:36:32;1.10;99.90
11221;DHT22;8517;53.546;10.104;2022-12-18T11:39:07;1.00;99.90
11221;DHT22;8517;53.546;10.104;2022-12-18T11:41:41;1.00;99.90
11221;DHT22;8517;53.546;10.104;2022-12-18T11:44:29;0.90;99.90
11221;DHT22;8517;53.546;10.104;2022-12-18T11:47:01;0.80;99.90
11221;DHT22;8517;53.546;10.104;2022-12-18T11:49:33;0.70;99.90
11221;DHT22;8517;53.546;10.104;2022-12-18T11:52:04;0.70;99.90
11221;DHT22;8517;53.546;10.104;2022-12-18T11:54:36;0.70;99.90
11221;DHT22;8517;53.546;10.104;2022-12-18T11:57:07;0.70;99.90
11221;DHT22;8517;53.546;10.104;2022-12-18T11:59:44;0.80;99.90
11221;DHT22;8517;53.546;10.104;2022-12-18T12:02:38;0.90;99.90
11221;DHT22;8517;53.546;10.104;2022-12-18T12:05:19;1.00;99.90
11221;DHT22;8517;53.546;10.104;2022-12-18T12:08:24;1.10;99.90
11221;DHT22;8517;53.546;10.104;2022-12-18T12:11:02;1.20;99.90
11221;DHT22;8517;53.546;10.104;2022-12-18T12:13:38;1.30;99.90
11221;DHT22;8517;53.546;10.104;2022-12-18T12:16:14;1.30;99.90
11221;DHT22;8517;53.546;10.104;2022-12-18T12:19:00;1.20;99.90
11221;DHT22;8517;53.546;10.104;2022-12-18T12:21:34;1.10;99.90
11221;DHT22;8517;53.546;10.104;2022-12-18T12:24:10;1.00;99.90
11221;DHT22;8517;53.546;10.104;2022-12-18T12:26:47;1.00;99.90
11221;DHT22;8517;53.546;10.104;2022-12-18T12:29:30;0.90;99.90
11221;DHT22;8517;53.546;10.104;2022-12-18T12:32:17;0.80;99.90
11221;DHT22;8517;53.546;10.104;2022-12-18T12:35:00;0.80;99.90
11221;DHT22;8517;53.546;10.104;2022-12-18T12:37:38;0.80;99.90
11221;DHT22;8517;53.546;10.104;2022-12-18T12:40:11;0.70;99.90
11221;DHT22;8517;53.546;10.104;2022-12-18T12:42:44;0.70;99.90
11221;DHT22;8517;53.546;10.104;2022-12-18T12:45:34;0.70;99.90
11221;DHT22;8517;53.546;10.104;2022-12-18T12:48:02;0.70;99.90
11221;DHT22;8517;53.546;10.104;2022-12-18T12:50:33;0.70;99.90
11221;DHT22;8517;53.546;10.104;2022-12-18T12:53:06;0.70;99.90
11221;DHT22;8517;53.546;10.104;2022-12-18T12:55:34;0.80;99.90
11221;DHT22;8517;53.546;10.104;2022-12-18T12:58:10;0.80;99.90
11221;DHT22;8517;53.546;10.104;2022-12-18T13:00:45;0.80;99.90
11221;DHT22;8517;53.546;10.104;2022-12-18T13:03:24;0.80;99.90
11221;DHT22;8517;53.546;10.104;2022-12-18T13:05:56;0.70;99.90
11221;DHT22;8517;53.546;10.104;2022-12-18T13:08:28;0.80;99.90
11221;DHT22;8517;53.546;10.104;2022-12-18T13:10:56;0.80;99.90
11221;DHT22;8517;53.546;10.104;2022-12-18T13:13:50;0.70;99.90
11221;DHT22;8517;53.546;10.104;2022-12-18T13:16:43;0.70;99.90
11221;DHT22;8517;53.546;10.104;2022-12-18T13:19:27;0.70;99.90
11221;DHT22;8517;53.546;10.104;2022-12-18T13:21:56;0.80;99.90
11221;DHT22;8517;53.546;10.104;2022-12-18T13:24:25;0.80;99.90
11221;DHT22;8517;53.546;10.104;2022-12-18T13:26:53;0.80;99.90
11221;DHT22;8517;53.546;10.104;2022-12-18T13:29:42;0.80;99.90
11221;DHT22;8517;53.546;10.104;2022-12-18T13:32:22;0.80;99.90
11221;DHT22;8517;53.546;10.104;2022-12-18T13:35:51;0.80;99.90
11221;DHT22;8517;53.546;10.104;2022-12-18T13:38:21;0.80;99.90
11221;DHT22;8517;53.546;10.104;2022-12-18T13:40:57;0.70;99.90
11221;DHT22;8517;53.546;10.104;2022-12-18T13:43:31;0.70;99.90
11221;DHT22;8517;53.546;10.104;2022-12-18T13:46:01;0.70;99.90
11221;DHT22;8517;53.546;10.104;2022-12-18T13:48:31;0.60;99.90
11221;DHT22;8517;53.546;10.104;2022-12-18T13:51:02;0.60;99.90
11221;DHT22;8517;53.546;10.104;2022-12-18T13:53:34;0.60;99.90
11221;DHT22;8517;53.546;10.104;2022-12-18T13:56:03;0.50;99.90
11221;DHT22;8517;53.546;10.104;2022-12-18T13:58:30;0.50;99.90
11221;DHT22;8517;53.546;10.104;2022-12-18T14:00:58;0.40;99.90
11221;DHT22;8517;53.546;10.104;2022-12-18T14:03:28;0.40;99.90
11221;DHT22;8517;53.546;10.104;2022-12-18T14:06:02;0.30;99.90
11221;DHT22;8517;53.546;10.104;2022-12-18T14:08:36;0.20;99.90
11221;DHT22;8517;53.546;10.104;2022-12-18T14:11:20;0.20;99.90
11221;DHT22;8517;53.546;10.104;2022-12-18T14:14:01;0.20;99.90
11221;DHT22;8517;53.546;10.104;2022-12-18T14:16:28;0.10;99.90
11221;DHT22;8517;53.546;10.104;2022-12-18T14:22:13;0.00;99.90
11221;DHT22;8517;53.546;10.104;2022-12-18T14:24:41;0.10;99.90
11221;DHT22;8517;53.546;10.104;2022-12-18T14:27:19;0.00;99.90
11221;DHT22;8517;53.546;10.104;2022-12-18T14:29:47;0.00;99.90
11221;DHT22;8517;53.546;10.104;2022-12-18T14:32:15;0.00;99.90
11221;DHT22;8517;53.546;10.104;2022-12-18T14:34:43;-0.10;99.90
11221;DHT22;8517;53.546;10.104;2022-12-18T14:37:13;0.00;99.90
11221;DHT22;8517;53.546;10.104;2022-12-18T14:39:40;-0.10;99.90
11221;DHT22;8517;53.546;10.104;2022-12-18T14:42:18;-0.10;99.90
11221;DHT22;8517;53.546;10.104;2022-12-18T14:44:45;-0.20;99.90
11221;DHT22;8517;53.546;10.104;2022-12-18T14:47:14;-0.20;99.90
11221;DHT22;8517;53.546;10.104;2022-12-18T14:49:42;-0.20;99.90
11221;DHT22;8517;53.546;10.104;2022-12-18T14:52:21;-0.20;99.90
11221;DHT22;8517;53.546;10.104;2022-12-18T14:54:49;-0.30;99.90
11221;DHT22;8517;53.546;10.104;2022-12-18T14:57:22;-0.30;99.90
11221;DHT22;8517;53.546;10.104;2022-12-18T14:59:50;-0.30;99.90
11221;DHT22;8517;53.546;10.104;2022-12-18T15:02:20;-0.30;99.90
11221;DHT22;8517;53.546;10.104;2022-12-18T15:04:59;-0.30;99.90
11221;DHT22;8517;53.546;10.104;2022-12-18T15:07:40;-0.30;99.90
11221;DHT22;8517;53.546;10.104;2022-12-18T15:10:20;-0.40;99.90
11221;DHT22;8517;53.546;10.104;2022-12-18T15:12:48;-0.30;99.90
11221;DHT22;8517;53.546;10.104;2022-12-18T15:15:44;-0.40;99.90
11221;DHT22;8517;53.546;10.104;2022-12-18T15:18:13;-0.40;99.90
11221;DHT22;8517;53.546;10.104;2022-12-18T15:20:42;-0.40;99.90
11221;DHT22;8517;53.546;10.104;2022-12-18T15:23:18;-0.40;99.90
11221;DHT22;8517;53.546;10.104;2022-12-18T15:25:47;-0.40;99.90
11221;DHT22;8517;53.546;10.104;2022-12-18T15:31:22;-0.50;99.90
11221;DHT22;8517;53.546;10.104;2022-12-18T15:34:11;-0.50;99.90
11221;DHT22;8517;53.546;10.104;2022-12-18T15:36:38;-0.50;99.90
11221;DHT22;8517;53.546;10.104;2022-12-18T15:39:10;-0.50;99.90
11221;DHT22;8517;53.546;10.104;2022-12-18T15:41:37;-0.50;99.90
11221;DHT22;8517;53.546;10.104;2022-12-18T15:44:23;-0.50;99.90
11221;DHT22;8517;53.546;10.104;2022-12-18T15:46:49;-0.50;99.90
11221;DHT22;8517;53.546;10.104;2022-12-18T15:49:16;-0.50;99.90
11221;DHT22;8517;53.546;10.104;2022-12-18T15:51:42;-0.50;99.90
11221;DHT22;8517;53.546;10.104;2022-12-18T15:54:13;-0.50;99.90
11221;DHT22;8517;53.546;10.104;2022-12-18T15:56:42;-0.50;99.90
11221;DHT22;8517;53.546;10.104;2022-12-18T15:59:26;-0.50;99.90
11221;DHT22;8517;53.546;10.104;2022-12-18T16:01:53;-0.50;99.90
11221;DHT22;8517;53.546;10.104;2022-12-18T16:04:21;-0.40;99.90
11221;DHT22;8517;53.546;10.104;2022-12-18T16:06:49;-0.50;99.90